createdAt,value
2018-09-13T00:00:16.763Z,65.4
2018-09-13T00:01:16.563Z,72.0
2018-09-13T00:02:16.840Z,71.7
2018-09-13T00:03:17.103Z,71.7
2018-09-13T00:04:16.369Z,71.6
2018-09-13T00:05:16.627Z,71.3
2018-09-13T00:06:16.891Z,71.3
2018-09-13T00:07:17.171Z,71.2
2018-09-13T00:08:16.448Z,71.2
2018-09-13T00:09:16.723Z,71.2
2018-09-13T00:10:17.021Z,70.8
2018-09-13T00:11:17.037Z,70.8
2018-09-13T00:12:16.301Z,70.2
2018-09-13T00:13:16.575Z,70.1
2018-09-13T00:14:16.844Z,70.0
2018-09-13T00:15:17.371Z,70.6
2018-09-13T00:16:16.629Z,70.4
2018-09-13T00:17:16.890Z,70.2
2018-09-13T00:18:17.173Z,69.8
2018-09-13T00:19:16.443Z,69.0
2018-09-13T00:20:16.721Z,68.8
2018-09-13T00:21:16.791Z,68.8
2018-09-13T00:22:17.059Z,68.7
2018-09-13T00:23:16.341Z,68.9
2018-09-13T00:24:16.614Z,69.4
2018-09-13T00:25:16.882Z,70.3
2018-09-13T00:26:17.159Z,70.3
2018-09-13T00:27:16.428Z,70.9
2018-09-13T00:28:16.695Z,70.8
2018-09-13T00:29:16.975Z,71.4
2018-09-13T00:30:17.256Z,72.1
2018-09-13T00:31:16.312Z,73.3
2018-09-13T00:32:16.586Z,75.2
2018-09-13T00:33:16.854Z,76.0
2018-09-13T00:34:17.124Z,76.2
2018-09-13T00:35:16.402Z,77.3
2018-09-13T00:36:16.664Z,76.5
2018-09-13T00:37:16.932Z,78.1
2018-09-13T00:38:17.205Z,78.7
2018-09-13T00:39:16.470Z,78.3
2018-09-13T00:40:16.741Z,78.9
2018-09-13T00:41:16.796Z,79.3
2018-09-13T00:42:17.063Z,79.8
2018-09-13T00:43:16.342Z,80.1
2018-09-13T00:44:16.621Z,80.3
2018-09-13T00:45:16.897Z,80.8
2018-09-13T00:46:17.166Z,81.4
2018-09-13T00:47:16.433Z,81.8
2018-09-13T00:48:16.690Z,81.5
2018-09-13T00:49:16.959Z,81.2
2018-09-13T00:50:17.234Z,81.8
2018-09-13T00:51:16.303Z,82.7
2018-09-13T00:52:16.596Z,83.4
2018-09-13T00:53:16.859Z,83.8
2018-09-13T00:54:17.139Z,83.8
2018-09-13T00:55:16.407Z,77.5
2018-09-13T00:56:16.673Z,77.8
2018-09-13T00:57:16.941Z,78.0
2018-09-13T00:58:17.202Z,77.7
2018-09-13T00:59:16.489Z,85.2
2018-09-13T01:00:16.771Z,85.5
2018-09-13T01:01:16.828Z,85.0
2018-09-13T01:02:17.295Z,79.0
2018-09-13T01:03:16.555Z,79.1
2018-09-13T01:04:16.821Z,78.6
2018-09-13T01:05:17.095Z,78.1
2018-09-13T01:06:16.372Z,78.9
2018-09-13T01:07:16.640Z,78.2
2018-09-13T01:08:16.899Z,78.1
2018-09-13T01:09:17.175Z,78.6
2018-09-13T01:10:16.442Z,78.7
2018-09-13T01:11:16.500Z,78.7
2018-09-13T01:12:16.782Z,79.0
2018-09-13T01:13:17.055Z,79.4
2018-09-13T01:14:16.347Z,79.1
2018-09-13T01:15:16.611Z,84.5
2018-09-13T01:16:16.881Z,84.4
2018-09-13T01:17:17.173Z,84.2
2018-09-13T01:18:16.437Z,85.2
2018-09-13T01:19:16.717Z,85.2
2018-09-13T01:20:17.017Z,85.5
2018-09-13T01:21:17.059Z,80.3
2018-09-13T01:22:16.339Z,80.5
2018-09-13T01:23:16.624Z,84.8
2018-09-13T01:24:16.903Z,84.3
2018-09-13T01:25:17.183Z,84.4
2018-09-13T01:26:16.454Z,84.6
2018-09-13T01:27:16.726Z,84.5
2018-09-13T01:28:16.985Z,84.6
2018-09-13T01:29:17.252Z,84.5
2018-09-13T01:30:16.534Z,84.3
2018-09-13T01:31:16.568Z,84.1
2018-09-13T01:32:16.841Z,84.1
2018-09-13T01:33:17.110Z,84.6
2018-09-13T01:34:16.375Z,84.8
2018-09-13T01:35:16.644Z,84.8
2018-09-13T01:36:16.909Z,85.5
2018-09-13T01:37:17.444Z,86.0
2018-09-13T01:38:16.713Z,86.2
2018-09-13T01:39:16.977Z,86.2
2018-09-13T01:40:17.253Z,86.2
2018-09-13T01:41:16.309Z,86.0
2018-09-13T01:42:16.586Z,86.0
2018-09-13T01:43:16.848Z,85.7
2018-09-13T01:44:17.120Z,85.7
2018-09-13T01:45:16.391Z,85.3
2018-09-13T01:46:16.668Z,86.0
2018-09-13T01:47:16.930Z,85.9
2018-09-13T01:48:17.201Z,85.9
2018-09-13T01:49:16.484Z,86.0
2018-09-13T01:50:16.769Z,85.9
2018-09-13T01:51:16.805Z,86.0
2018-09-13T01:52:17.070Z,85.9
2018-09-13T01:53:16.340Z,85.6
2018-09-13T01:54:16.601Z,85.8
2018-09-13T01:55:16.872Z,86.2
2018-09-13T01:56:17.139Z,86.3
2018-09-13T01:57:16.420Z,86.3
2018-09-13T01:58:16.688Z,86.2
2018-09-13T01:59:16.960Z,86.2
2018-09-13T02:00:17.248Z,86.5
2018-09-13T02:01:16.309Z,86.8
2018-09-13T02:02:16.584Z,86.8
2018-09-13T02:03:16.849Z,86.8
2018-09-13T02:04:17.128Z,86.9
2018-09-13T02:05:16.399Z,86.8
2018-09-13T02:06:16.670Z,86.8
2018-09-13T02:07:16.942Z,86.8
2018-09-13T02:08:17.224Z,87.0
2018-09-13T02:09:16.492Z,87.2
2018-09-13T02:10:16.778Z,86.7
2018-09-13T02:11:16.828Z,81.0
2018-09-13T02:12:17.356Z,87.4
2018-09-13T02:13:16.615Z,87.4
2018-09-13T02:14:16.891Z,87.2
2018-09-13T02:15:17.162Z,87.2
2018-09-13T02:16:16.432Z,87.6
2018-09-13T02:17:16.699Z,87.9
2018-09-13T02:18:17.224Z,87.9
2018-09-13T02:19:16.494Z,88.0
2018-09-13T02:20:16.772Z,88.1
2018-09-13T02:21:16.810Z,87.9
2018-09-13T02:22:17.098Z,88.0
2018-09-13T02:23:16.364Z,88.0
2018-09-13T02:24:16.636Z,87.8
2018-09-13T02:25:16.906Z,87.8
2018-09-13T02:26:17.163Z,87.6
2018-09-13T02:27:16.438Z,87.5
2018-09-13T02:28:17.132Z,87.4
2018-09-13T02:29:16.412Z,87.5
2018-09-13T02:30:16.686Z,87.7
2018-09-13T02:31:16.744Z,87.6
2018-09-13T02:32:17.006Z,88.4
2018-09-13T02:33:16.274Z,88.4
2018-09-13T02:34:16.555Z,88.0
2018-09-13T02:35:16.825Z,87.9
2018-09-13T02:36:17.119Z,87.8
2018-09-13T02:37:16.394Z,87.7
2018-09-13T02:38:16.666Z,87.9
2018-09-13T02:39:16.932Z,88.2
2018-09-13T02:40:17.227Z,88.2
2018-09-13T02:41:17.263Z,88.3
2018-09-13T02:42:16.535Z,88.2
2018-09-13T02:43:16.806Z,87.7
2018-09-13T02:44:17.082Z,87.6
2018-09-13T02:45:16.352Z,87.6
2018-09-13T02:46:16.627Z,87.8
2018-09-13T02:47:16.888Z,88.0
2018-09-13T02:48:17.162Z,88.0
2018-09-13T02:49:16.582Z,88.3
2018-09-13T02:50:16.931Z,88.3
2018-09-13T02:51:16.983Z,88.5
2018-09-13T02:52:17.269Z,88.6
2018-09-13T02:53:16.541Z,88.5
2018-09-13T02:54:16.812Z,88.5
2018-09-13T02:55:17.080Z,88.9
2018-09-13T02:56:16.349Z,89.0
2018-09-13T02:57:16.617Z,89.1
2018-09-13T02:58:16.887Z,89.2
2018-09-13T02:59:17.156Z,88.8
2018-09-13T03:00:16.454Z,89.2
2018-09-13T03:01:16.475Z,89.5
2018-09-13T03:02:16.739Z,89.6
2018-09-13T03:03:17.009Z,89.5
2018-09-13T03:04:16.291Z,89.5
2018-09-13T03:05:16.581Z,89.3
2018-09-13T03:06:16.847Z,89.5
2018-09-13T03:07:17.123Z,89.4
2018-09-13T03:08:16.599Z,89.1
2018-09-13T03:09:16.881Z,88.9
2018-09-13T03:10:17.155Z,88.4
2018-09-13T03:11:17.190Z,88.3
2018-09-13T03:12:16.475Z,88.5
2018-09-13T03:13:16.758Z,88.2
2018-09-13T03:14:17.040Z,88.1
2018-09-13T03:15:16.325Z,88.2
2018-09-13T03:16:16.596Z,88.3
2018-09-13T03:17:16.876Z,88.3
2018-09-13T03:18:17.164Z,88.4
2018-09-13T03:19:16.429Z,88.5
2018-09-13T03:20:16.709Z,87.9
2018-09-13T03:21:16.747Z,87.8
2018-09-13T03:22:17.027Z,87.2
2018-09-13T03:23:16.296Z,87.1
2018-09-13T03:24:16.581Z,87.0
2018-09-13T03:25:16.877Z,87.0
2018-09-13T03:26:17.148Z,87.0
2018-09-13T03:27:16.416Z,86.7
2018-09-13T03:28:16.682Z,87.2
2018-09-13T03:29:16.956Z,86.7
2018-09-13T03:30:17.263Z,86.8
2018-09-13T03:31:16.296Z,86.6
2018-09-13T03:32:16.580Z,86.8
2018-09-13T03:33:16.847Z,86.7
2018-09-13T03:34:17.118Z,86.8
2018-09-13T03:35:16.380Z,86.8
2018-09-13T03:36:16.645Z,87.0
2018-09-13T03:37:16.910Z,87.2
2018-09-13T03:38:17.378Z,86.9
2018-09-13T03:39:16.654Z,86.7
2018-09-13T03:40:17.006Z,86.8
2018-09-13T03:41:16.951Z,86.8
2018-09-13T03:42:17.215Z,87.0
2018-09-13T03:43:16.490Z,87.0
2018-09-13T03:44:16.757Z,87.0
2018-09-13T03:45:17.033Z,87.4
2018-09-13T03:46:16.327Z,87.8
2018-09-13T03:47:16.591Z,87.8
2018-09-13T03:48:16.859Z,87.9
2018-09-13T03:49:17.139Z,88.0
2018-09-13T03:50:16.410Z,88.0
2018-09-13T03:51:16.469Z,88.2
2018-09-13T03:52:16.739Z,88.1
2018-09-13T03:53:17.013Z,88.2
2018-09-13T03:54:16.586Z,88.1
2018-09-13T03:55:16.870Z,87.8
2018-09-13T03:56:17.143Z,87.8
2018-09-13T03:57:16.414Z,87.7
2018-09-13T03:58:16.699Z,87.8
2018-09-13T03:59:16.967Z,87.8
2018-09-13T04:00:17.263Z,87.8
2018-09-13T04:01:16.307Z,87.8
2018-09-13T04:02:16.591Z,87.9
2018-09-13T04:03:16.970Z,87.9
2018-09-13T04:04:17.265Z,88.0
2018-09-13T04:05:16.536Z,88.0
2018-09-13T04:06:16.795Z,88.2
2018-09-13T04:07:17.070Z,88.3
2018-09-13T04:08:16.339Z,88.2
2018-09-13T04:09:16.811Z,88.5
2018-09-13T04:10:17.182Z,88.6
2018-09-13T04:11:17.194Z,88.5
2018-09-13T04:12:16.470Z,88.6
2018-09-13T04:13:16.752Z,88.7
2018-09-13T04:14:17.029Z,88.6
2018-09-13T04:15:16.336Z,88.7
2018-09-13T04:16:16.600Z,88.7
2018-09-13T04:17:16.863Z,88.7
2018-09-13T04:18:17.141Z,88.7
2018-09-13T04:19:16.412Z,88.5
2018-09-13T04:20:16.697Z,88.5
2018-09-13T04:21:16.737Z,88.5
2018-09-13T04:22:17.022Z,88.7
2018-09-13T04:23:16.291Z,88.6
2018-09-13T04:24:16.572Z,89.0
2018-09-13T04:25:16.854Z,89.0
2018-09-13T04:26:17.137Z,88.8
2018-09-13T04:27:16.412Z,88.8
2018-09-13T04:28:16.678Z,88.8
2018-09-13T04:29:16.945Z,88.8
2018-09-13T04:30:17.236Z,88.7
2018-09-13T04:31:16.272Z,88.7
2018-09-13T04:32:16.560Z,88.6
2018-09-13T04:33:16.831Z,88.8
2018-09-13T04:34:17.099Z,88.9
2018-09-13T04:35:16.394Z,89.2
2018-09-13T04:36:16.652Z,89.3
2018-09-13T04:37:16.920Z,89.7
2018-09-13T04:38:17.193Z,89.8
2018-09-13T04:39:16.470Z,89.8
2018-09-13T04:40:16.745Z,89.8
2018-09-13T04:41:16.809Z,89.8
2018-09-13T04:42:17.077Z,89.9
2018-09-13T04:43:16.341Z,89.7
2018-09-13T04:44:16.603Z,89.5
2018-09-13T04:45:16.868Z,89.6
2018-09-13T04:46:17.137Z,89.3
2018-09-13T04:47:16.405Z,89.5
2018-09-13T04:48:16.674Z,89.4
2018-09-13T04:49:17.322Z,89.4
2018-09-13T04:50:16.684Z,88.8
2018-09-13T04:51:16.728Z,88.8
2018-09-13T04:52:16.992Z,88.5
2018-09-13T04:53:16.270Z,89.0
2018-09-13T04:54:16.558Z,89.4
2018-09-13T04:55:16.829Z,89.3
2018-09-13T04:56:17.099Z,89.3
2018-09-13T04:57:16.375Z,89.3
2018-09-13T04:58:16.640Z,88.3
2018-09-13T04:59:16.916Z,88.4
2018-09-13T05:00:17.359Z,88.2
2018-09-13T05:01:17.239Z,88.4
2018-09-13T05:02:16.506Z,88.1
2018-09-13T05:03:16.772Z,88.5
2018-09-13T05:04:17.040Z,88.3
2018-09-13T05:05:16.344Z,87.9
2018-09-13T05:06:16.613Z,88.0
2018-09-13T05:07:16.879Z,88.0
2018-09-13T05:08:17.153Z,87.8
2018-09-13T05:09:16.429Z,87.8
2018-09-13T05:10:16.712Z,87.9
2018-09-13T05:11:16.793Z,87.7
2018-09-13T05:12:17.061Z,87.7
2018-09-13T05:13:16.340Z,87.8
2018-09-13T05:14:16.604Z,87.4
2018-09-13T05:15:16.878Z,87.2
2018-09-13T05:16:17.150Z,87.0
2018-09-13T05:17:16.419Z,87.0
2018-09-13T05:18:16.685Z,81.0
2018-09-13T05:19:16.961Z,80.4
2018-09-13T05:20:17.238Z,80.3
2018-09-13T05:21:16.286Z,80.3
2018-09-13T05:22:16.573Z,80.3
2018-09-13T05:23:16.852Z,80.0
2018-09-13T05:24:17.231Z,86.0
2018-09-13T05:25:16.513Z,85.8
2018-09-13T05:26:16.771Z,85.2
2018-09-13T05:27:17.038Z,85.0
2018-09-13T05:28:16.313Z,85.3
2018-09-13T05:29:16.579Z,85.3
2018-09-13T05:30:16.865Z,79.1
2018-09-13T05:31:16.907Z,79.8
2018-09-13T05:32:17.181Z,85.2
2018-09-13T05:33:16.445Z,85.1
2018-09-13T05:34:16.717Z,85.0
2018-09-13T05:35:17.006Z,78.9
2018-09-13T05:36:16.302Z,78.6
2018-09-13T05:37:16.574Z,84.6
2018-09-13T05:38:16.843Z,84.7
2018-09-13T05:39:17.116Z,84.5
2018-09-13T05:40:16.388Z,84.5
2018-09-13T05:41:16.422Z,84.4
2018-09-13T05:42:16.689Z,84.3
2018-09-13T05:43:16.966Z,77.7
2018-09-13T05:44:17.236Z,78.2
2018-09-13T05:45:16.521Z,77.3
2018-09-13T05:46:16.797Z,77.3
2018-09-13T05:47:17.078Z,77.4
2018-09-13T05:48:16.351Z,77.3
2018-09-13T05:49:16.625Z,77.6
2018-09-13T05:50:16.905Z,77.7
2018-09-13T05:51:17.181Z,77.0
2018-09-13T05:52:16.512Z,76.7
2018-09-13T05:53:16.783Z,76.9
2018-09-13T05:54:17.044Z,76.6
2018-09-13T05:55:16.322Z,76.5
2018-09-13T05:56:16.605Z,76.5
2018-09-13T05:57:16.875Z,76.0
2018-09-13T05:58:17.152Z,75.8
2018-09-13T05:59:16.437Z,75.3
2018-09-13T06:00:16.731Z,83.3
2018-09-13T06:01:16.858Z,83.1
2018-09-13T06:02:17.150Z,83.0
2018-09-13T06:03:16.418Z,82.8
2018-09-13T06:04:16.688Z,82.5
2018-09-13T06:05:16.981Z,82.6
2018-09-13T06:06:17.262Z,82.8
2018-09-13T06:07:16.528Z,82.8
2018-09-13T06:08:16.813Z,82.8
2018-09-13T06:09:17.086Z,82.7
2018-09-13T06:10:16.373Z,82.6
2018-09-13T06:11:16.404Z,82.1
2018-09-13T06:12:16.685Z,82.3
2018-09-13T06:13:16.967Z,82.0
2018-09-13T06:14:17.243Z,81.9
2018-09-13T06:15:16.510Z,81.8
2018-09-13T06:16:16.785Z,81.8
2018-09-13T06:17:17.054Z,81.8
2018-09-13T06:18:16.336Z,81.3
2018-09-13T06:19:16.622Z,82.1
2018-09-13T06:20:16.896Z,81.6
2018-09-13T06:21:16.927Z,82.0
2018-09-13T06:22:17.198Z,81.8
2018-09-13T06:23:16.471Z,81.8
2018-09-13T06:24:16.740Z,80.7
2018-09-13T06:25:17.020Z,80.9
2018-09-13T06:26:16.292Z,81.0
2018-09-13T06:27:16.558Z,81.3
2018-09-13T06:28:16.839Z,80.4
2018-09-13T06:29:17.102Z,80.4
2018-09-13T06:30:16.376Z,79.6
2018-09-13T06:31:16.433Z,79.8
2018-09-13T06:32:16.695Z,79.2
2018-09-13T06:33:16.958Z,79.2
2018-09-13T06:34:17.224Z,79.5
2018-09-13T06:35:16.501Z,79.6
2018-09-13T06:36:16.834Z,79.0
2018-09-13T06:37:17.114Z,78.8
2018-09-13T06:38:16.442Z,78.3
2018-09-13T06:39:16.763Z,78.0
2018-09-13T06:40:17.043Z,77.8
2018-09-13T06:41:17.105Z,78.3
2018-09-13T06:42:16.471Z,78.0
2018-09-13T06:43:16.745Z,77.5
2018-09-13T06:44:17.029Z,77.3
2018-09-13T06:45:16.292Z,78.4
2018-09-13T06:46:16.567Z,79.8
2018-09-13T06:47:16.832Z,79.0
2018-09-13T06:48:17.110Z,78.1
2018-09-13T06:49:16.384Z,78.2
2018-09-13T06:50:16.667Z,78.2
2018-09-13T06:51:16.698Z,78.5
2018-09-13T06:52:16.973Z,78.4
2018-09-13T06:53:17.246Z,78.7
2018-09-13T06:54:16.630Z,78.3
2018-09-13T06:55:16.904Z,77.5
2018-09-13T06:56:17.173Z,77.7
2018-09-13T06:57:16.443Z,77.7
2018-09-13T06:58:16.711Z,76.9
2018-09-13T06:59:16.978Z,76.8
2018-09-13T07:00:17.299Z,76.3
2018-09-13T07:01:16.304Z,75.5
2018-09-13T07:02:16.642Z,75.1
2018-09-13T07:03:16.910Z,75.1
2018-09-13T07:04:17.178Z,74.6
2018-09-13T07:05:16.464Z,73.7
2018-09-13T07:06:16.727Z,73.4
2018-09-13T07:07:16.993Z,74.0
2018-09-13T07:08:16.259Z,74.3
2018-09-13T07:09:16.692Z,73.8
2018-09-13T07:10:16.963Z,74.0
2018-09-13T07:11:17.027Z,73.0
2018-09-13T07:12:16.291Z,73.7
2018-09-13T07:13:16.574Z,72.8
2018-09-13T07:14:16.837Z,72.8
2018-09-13T07:15:17.104Z,73.1
2018-09-13T07:16:16.365Z,72.7
2018-09-13T07:17:16.642Z,72.7
2018-09-13T07:18:16.914Z,71.8
2018-09-13T07:19:17.519Z,71.2
2018-09-13T07:20:16.783Z,71.2
2018-09-13T07:21:16.863Z,71.2
2018-09-13T07:22:17.136Z,72.0
2018-09-13T07:23:16.397Z,72.3
2018-09-13T07:24:16.681Z,72.2
2018-09-13T07:25:16.963Z,72.5
2018-09-13T07:26:17.248Z,72.2
2018-09-13T07:27:16.513Z,72.8
2018-09-13T07:28:16.784Z,72.2
2018-09-13T07:29:17.063Z,72.8
2018-09-13T07:30:16.356Z,72.9
2018-09-13T07:31:16.389Z,73.7
2018-09-13T07:32:16.664Z,73.8
2018-09-13T07:33:16.934Z,73.9
2018-09-13T07:34:17.188Z,73.9
2018-09-13T07:35:16.460Z,73.9
2018-09-13T07:36:16.732Z,73.8
2018-09-13T07:37:16.993Z,73.9
2018-09-13T07:38:16.261Z,74.1
2018-09-13T07:39:16.530Z,75.0
2018-09-13T07:40:16.813Z,74.9
2018-09-13T07:41:16.860Z,74.3
2018-09-13T07:42:17.151Z,74.8
2018-09-13T07:43:16.441Z,75.0
2018-09-13T07:44:16.715Z,75.4
2018-09-13T07:45:16.994Z,75.6
2018-09-13T07:46:16.264Z,76.0
2018-09-13T07:47:16.539Z,76.8
2018-09-13T07:48:16.806Z,77.2
2018-09-13T07:49:17.144Z,77.2
2018-09-13T07:50:16.442Z,77.4
2018-09-13T07:51:16.580Z,77.5
2018-09-13T07:52:16.863Z,77.5
2018-09-13T07:53:17.123Z,79.1
2018-09-13T07:54:16.408Z,79.2
2018-09-13T07:55:16.681Z,78.8
2018-09-13T07:56:17.044Z,79.7
2018-09-13T07:57:16.410Z,81.7
2018-09-13T07:58:16.681Z,82.3
2018-09-13T07:59:16.948Z,82.8
2018-09-13T08:00:17.247Z,82.2
2018-09-13T08:01:16.284Z,82.2
2018-09-13T08:02:16.558Z,82.8
2018-09-13T08:03:16.939Z,83.6
2018-09-13T08:04:17.210Z,84.4
2018-09-13T08:05:16.476Z,85.0
2018-09-13T08:06:16.740Z,85.3
2018-09-13T08:07:17.004Z,84.8
2018-09-13T08:08:16.264Z,85.5
2018-09-13T08:09:16.532Z,85.7
2018-09-13T08:10:16.824Z,86.2
2018-09-13T08:11:16.842Z,86.2
2018-09-13T08:12:17.343Z,86.0
2018-09-13T08:13:16.680Z,86.0
2018-09-13T08:14:16.952Z,85.2
2018-09-13T08:15:17.234Z,85.1
2018-09-13T08:16:16.511Z,86.5
2018-09-13T08:17:16.774Z,86.7
2018-09-13T08:18:17.040Z,87.8
2018-09-13T08:19:16.322Z,87.5
2018-09-13T08:20:16.614Z,86.9
2018-09-13T08:21:16.725Z,86.9
2018-09-13T08:22:17.059Z,86.6
2018-09-13T08:23:16.339Z,86.5
2018-09-13T08:24:16.608Z,86.8
2018-09-13T08:25:16.884Z,86.2
2018-09-13T08:26:17.157Z,86.1
2018-09-13T08:27:16.673Z,85.7
2018-09-13T08:28:16.957Z,85.6
2018-09-13T08:29:17.445Z,85.0
2018-09-13T08:30:16.737Z,84.8
2018-09-13T08:31:16.759Z,84.2
2018-09-13T08:32:17.029Z,84.8
2018-09-13T08:33:16.475Z,85.4
2018-09-13T08:34:16.779Z,86.1
2018-09-13T08:35:17.212Z,86.3
2018-09-13T08:36:16.476Z,86.5
2018-09-13T08:37:16.744Z,85.8
2018-09-13T08:38:17.011Z,85.7
2018-09-13T08:39:16.283Z,85.8
2018-09-13T08:40:16.614Z,84.7
2018-09-13T08:41:16.613Z,84.5
2018-09-13T08:42:16.882Z,83.6
2018-09-13T08:43:17.154Z,83.6
2018-09-13T08:44:16.425Z,83.2
2018-09-13T08:45:16.707Z,83.0
2018-09-13T08:46:16.992Z,83.2
2018-09-13T08:47:16.316Z,82.7
2018-09-13T08:48:16.591Z,82.8
2018-09-13T08:49:16.863Z,82.8
2018-09-13T08:50:17.161Z,81.9
2018-09-13T08:51:17.202Z,81.0
2018-09-13T08:52:16.475Z,80.3
2018-09-13T08:53:16.740Z,78.9
2018-09-13T08:54:17.020Z,78.8
2018-09-13T08:55:16.500Z,78.9
2018-09-13T08:56:16.853Z,79.6
2018-09-13T08:57:17.108Z,79.8
2018-09-13T08:58:16.374Z,80.8
2018-09-13T08:59:16.652Z,79.3
2018-09-13T09:00:16.922Z,79.9
2018-09-13T09:01:16.979Z,79.2
2018-09-13T09:02:17.248Z,77.3
2018-09-13T09:03:16.515Z,76.9
2018-09-13T09:04:16.796Z,77.2
2018-09-13T09:05:17.067Z,77.2
2018-09-13T09:06:16.434Z,77.2
2018-09-13T09:07:16.710Z,78.2
2018-09-13T09:08:16.973Z,76.2
2018-09-13T09:09:17.245Z,76.8
2018-09-13T09:10:16.511Z,77.7
2018-09-13T09:11:16.565Z,77.2
2018-09-13T09:12:16.828Z,77.2
2018-09-13T09:13:17.106Z,77.2
2018-09-13T09:14:16.390Z,77.2
2018-09-13T09:15:16.667Z,77.5
2018-09-13T09:16:16.945Z,78.5
2018-09-13T09:17:17.224Z,78.7
2018-09-13T09:18:16.492Z,78.2
2018-09-13T09:19:16.758Z,78.5
2018-09-13T09:20:17.087Z,79.4
2018-09-13T09:21:17.154Z,79.3
2018-09-13T09:22:16.429Z,78.3
2018-09-13T09:23:16.705Z,79.0
2018-09-13T09:24:16.972Z,79.1
2018-09-13T09:25:17.249Z,79.7
2018-09-13T09:26:16.519Z,79.7
2018-09-13T09:27:16.804Z,79.9
2018-09-13T09:28:17.255Z,79.3
2018-09-13T09:29:17.024Z,79.8
2018-09-13T09:30:16.303Z,79.9
2018-09-13T09:31:16.344Z,80.2
2018-09-13T09:32:16.606Z,80.1
2018-09-13T09:33:16.874Z,79.7
2018-09-13T09:34:17.154Z,79.6
2018-09-13T09:35:16.457Z,80.2
2018-09-13T09:36:16.720Z,80.1
2018-09-13T09:37:16.990Z,80.2
2018-09-13T09:38:16.277Z,80.8
2018-09-13T09:39:16.543Z,81.1
2018-09-13T09:40:16.817Z,80.9
2018-09-13T09:41:16.866Z,82.1
2018-09-13T09:42:17.145Z,81.7
2018-09-13T09:43:16.421Z,82.1
2018-09-13T09:44:16.773Z,81.6
2018-09-13T09:45:17.053Z,80.9
2018-09-13T09:46:16.359Z,81.1
2018-09-13T09:47:16.660Z,81.0
2018-09-13T09:48:16.932Z,81.0
2018-09-13T09:49:17.203Z,80.6
2018-09-13T09:50:16.662Z,80.8
2018-09-13T09:51:16.518Z,80.8
2018-09-13T09:52:16.892Z,80.0
2018-09-13T09:53:17.175Z,79.5
2018-09-13T09:54:16.444Z,79.1
2018-09-13T09:55:16.732Z,79.1
2018-09-13T09:56:17.231Z,79.5
2018-09-13T09:57:16.549Z,79.2
2018-09-13T09:58:16.816Z,78.8
2018-09-13T09:59:17.107Z,78.5
2018-09-13T10:00:16.404Z,78.7
2018-09-13T10:01:16.435Z,78.4
2018-09-13T10:02:16.772Z,78.7
2018-09-13T10:03:17.047Z,78.5
2018-09-13T10:04:16.418Z,79.2
2018-09-13T10:05:16.722Z,78.2
2018-09-13T10:06:16.994Z,78.0
2018-09-13T10:07:16.276Z,78.7
2018-09-13T10:08:16.543Z,78.6
2018-09-13T10:09:16.818Z,77.8
2018-09-13T10:10:17.104Z,78.1
2018-09-13T10:11:17.143Z,77.2
2018-09-13T10:12:16.427Z,77.2
2018-09-13T10:13:16.716Z,76.9
2018-09-13T10:14:16.985Z,76.7
2018-09-13T10:15:17.282Z,77.2
2018-09-13T10:16:16.738Z,77.7
2018-09-13T10:17:17.126Z,77.7
2018-09-13T10:18:16.392Z,75.9
2018-09-13T10:19:16.654Z,76.5
2018-09-13T10:20:16.923Z,75.8
2018-09-13T10:21:16.977Z,76.3
2018-09-13T10:22:17.260Z,75.9
2018-09-13T10:23:16.529Z,75.9
2018-09-13T10:24:16.796Z,75.8
2018-09-13T10:25:17.077Z,75.2
2018-09-13T10:26:16.347Z,74.0
2018-09-13T10:27:16.606Z,74.2
2018-09-13T10:28:16.874Z,73.3
2018-09-13T10:29:17.392Z,73.5
2018-09-13T10:30:16.692Z,73.1
2018-09-13T10:31:16.736Z,73.1
2018-09-13T10:32:17.001Z,71.8
2018-09-13T10:33:16.288Z,72.4
2018-09-13T10:34:16.565Z,71.5
2018-09-13T10:35:16.950Z,72.5
2018-09-13T10:36:17.221Z,71.3
2018-09-13T10:37:16.505Z,71.5
2018-09-13T10:38:16.776Z,71.0
2018-09-13T10:39:17.064Z,70.0
2018-09-13T10:40:16.351Z,70.4
2018-09-13T10:41:16.391Z,71.3
2018-09-13T10:42:16.655Z,70.2
2018-09-13T10:43:16.924Z,69.8
2018-09-13T10:44:17.417Z,70.7
2018-09-13T10:45:16.689Z,71.1
2018-09-13T10:46:16.969Z,69.2
2018-09-13T10:47:17.348Z,70.3
2018-09-13T10:48:16.804Z,71.2
2018-09-13T10:49:17.170Z,71.7
2018-09-13T10:50:16.514Z,71.8
2018-09-13T10:51:16.483Z,70.2
2018-09-13T10:52:16.937Z,69.0
2018-09-13T10:53:16.293Z,69.2
2018-09-13T10:54:16.685Z,69.5
2018-09-13T10:55:16.990Z,69.2
2018-09-13T10:56:16.279Z,70.2
2018-09-13T10:57:16.562Z,70.0
2018-09-13T10:58:16.839Z,70.1
2018-09-13T10:59:18.119Z,70.5
2018-09-13T11:00:16.421Z,70.6
2018-09-13T11:01:16.462Z,70.5
2018-09-13T11:02:16.729Z,70.8
2018-09-13T11:03:17.058Z,70.5
2018-09-13T11:04:16.419Z,70.5
2018-09-13T11:05:16.696Z,70.7
2018-09-13T11:06:16.973Z,70.0
2018-09-13T11:07:17.249Z,69.4
2018-09-13T11:08:16.512Z,68.3
2018-09-13T11:09:16.784Z,69.2
2018-09-13T11:10:17.062Z,69.3
2018-09-13T11:11:17.185Z,69.3
2018-09-13T11:12:16.546Z,70.1
2018-09-13T11:13:16.809Z,69.2
2018-09-13T11:14:17.090Z,69.2
2018-09-13T11:15:16.356Z,69.2
2018-09-13T11:16:16.626Z,68.4
2018-09-13T11:17:16.887Z,70.5
2018-09-13T11:18:17.164Z,70.7
2018-09-13T11:19:16.438Z,70.8
2018-09-13T11:20:16.729Z,70.0
2018-09-13T11:21:16.754Z,69.3
2018-09-13T11:22:17.020Z,71.0
2018-09-13T11:23:16.298Z,70.1
2018-09-13T11:24:16.560Z,72.0
2018-09-13T11:25:16.843Z,70.4
2018-09-13T11:26:17.107Z,69.6
2018-09-13T11:27:16.385Z,70.5
2018-09-13T11:28:16.651Z,71.4
2018-09-13T11:29:16.923Z,70.8
2018-09-13T11:30:17.219Z,71.2
2018-09-13T11:31:17.244Z,70.8
2018-09-13T11:32:16.517Z,70.2
2018-09-13T11:33:16.786Z,70.3
2018-09-13T11:34:17.063Z,70.7
2018-09-13T11:35:16.339Z,71.0
2018-09-13T11:36:16.617Z,70.7
2018-09-13T11:37:16.892Z,71.4
2018-09-13T11:38:17.155Z,71.3
2018-09-13T11:39:16.427Z,69.8
2018-09-13T11:40:17.022Z,69.6
2018-09-13T11:41:16.735Z,69.0
2018-09-13T11:42:17.010Z,68.9
2018-09-13T11:43:16.281Z,68.7
2018-09-13T11:44:16.570Z,68.3
2018-09-13T11:45:16.864Z,67.9
2018-09-13T11:46:17.157Z,68.2
2018-09-13T11:47:16.434Z,68.0
2018-09-13T11:48:16.701Z,68.2
2018-09-13T11:49:16.964Z,67.8
2018-09-13T11:50:17.248Z,68.7
2018-09-13T11:51:16.297Z,67.2
2018-09-13T11:52:16.563Z,66.8
2018-09-13T11:53:16.827Z,67.1
2018-09-13T11:54:17.095Z,67.5
2018-09-13T11:55:16.365Z,67.2
2018-09-13T11:56:16.643Z,67.0
2018-09-13T11:57:16.905Z,67.5
2018-09-13T11:58:17.176Z,66.7
2018-09-13T11:59:16.453Z,66.3
2018-09-13T12:00:16.731Z,65.5
2018-09-13T12:01:17.024Z,65.5
2018-09-13T12:02:16.366Z,65.7
2018-09-13T12:03:16.634Z,65.2
2018-09-13T12:04:16.902Z,65.2
2018-09-13T12:05:17.175Z,65.5
2018-09-13T12:06:16.449Z,65.8
2018-09-13T12:07:16.720Z,66.2
2018-09-13T12:08:16.987Z,65.5
2018-09-13T12:09:17.264Z,65.1
2018-09-13T12:10:16.556Z,63.9
2018-09-13T12:11:16.598Z,64.3
2018-09-13T12:12:16.864Z,64.4
2018-09-13T12:13:17.212Z,64.2
2018-09-13T12:14:16.509Z,63.9
2018-09-13T12:15:16.806Z,63.9
2018-09-13T12:16:17.072Z,65.0
2018-09-13T12:17:16.339Z,63.5
2018-09-13T12:18:16.756Z,63.1
2018-09-13T12:19:17.152Z,62.7
2018-09-13T12:20:16.435Z,62.9
2018-09-13T12:21:16.472Z,63.2
2018-09-13T12:22:16.804Z,62.9
2018-09-13T12:23:17.089Z,63.2
2018-09-13T12:24:16.357Z,62.9
2018-09-13T12:25:16.647Z,62.8
2018-09-13T12:26:16.936Z,62.5
2018-09-13T12:27:17.215Z,63.2
2018-09-13T12:28:16.488Z,63.0
2018-09-13T12:29:16.755Z,62.1
2018-09-13T12:30:17.045Z,62.4
2018-09-13T12:31:17.103Z,62.8
2018-09-13T12:32:16.374Z,62.2
2018-09-13T12:33:16.642Z,62.5
2018-09-13T12:34:16.913Z,62.2
2018-09-13T12:35:17.178Z,62.2
2018-09-13T12:36:16.453Z,62.4
2018-09-13T12:37:16.726Z,62.4
2018-09-13T12:38:16.999Z,62.5
2018-09-13T12:39:16.267Z,62.7
2018-09-13T12:40:16.543Z,63.1
2018-09-13T12:41:16.679Z,63.1
2018-09-13T12:42:16.939Z,63.2
2018-09-13T12:43:17.205Z,62.7
2018-09-13T12:44:16.483Z,62.4
2018-09-13T12:45:16.768Z,62.4
2018-09-13T12:46:17.032Z,62.5
2018-09-13T12:47:16.299Z,62.4
2018-09-13T12:48:16.585Z,62.5
2018-09-13T12:49:16.867Z,62.5
2018-09-13T12:50:17.145Z,62.7
2018-09-13T12:51:17.198Z,62.5
2018-09-13T12:52:16.581Z,62.0
2018-09-13T12:53:16.914Z,62.1
2018-09-13T12:54:17.199Z,62.1
2018-09-13T12:55:16.463Z,62.1
2018-09-13T12:56:16.836Z,62.3
2018-09-13T12:57:17.486Z,62.6
2018-09-13T12:58:16.755Z,62.5
2018-09-13T12:59:17.015Z,63.4
2018-09-13T13:00:16.313Z,64.0
2018-09-13T13:01:16.345Z,62.9
2018-09-13T13:02:16.645Z,63.2
2018-09-13T13:03:16.908Z,62.7
2018-09-13T13:04:17.171Z,62.5
2018-09-13T13:05:16.441Z,62.8
2018-09-13T13:06:16.724Z,62.5
2018-09-13T13:07:16.999Z,63.1
2018-09-13T13:08:16.275Z,62.9
2018-09-13T13:09:16.546Z,63.3
2018-09-13T13:10:16.824Z,61.6
2018-09-13T13:11:16.868Z,62.0
2018-09-13T13:12:17.147Z,62.2
2018-09-13T13:13:16.422Z,62.3
2018-09-13T13:14:16.683Z,62.5
2018-09-13T13:15:16.942Z,63.9
2018-09-13T13:16:17.217Z,63.1
2018-09-13T13:17:16.487Z,62.5
2018-09-13T13:18:16.782Z,62.5